LGSY

Skiros Airport

Skiros Island, Greece
TAF LGSY 182300Z 1900/1909 21015KT 6000 SCT010 BKN020 TEMPO 1900/1906 4000 RA PROB40 TEMPO 1900/1903 2000 TSRA SCT008 FEW016CB BKN020 BECMG 1901/1903 29012KT
Issued Valid From Valid To
Nov-18 @ 23:00 UTC
(2 hours ago)
Nov-19 @ 00:00 UTC
(58 minutes ago)
Nov-19 @ 09:00 UTC
(in 8 hours)
Nov-19 @ 00:00 to Nov-19 @ 01:00
TAF LGSY 182300Z 1900/1909 21015KT 6000 SCT010 BKN020
Wind Visibility Clouds
210° at 15 knots 6,003 meters
  • Scattered at 1,000' AGL
  • Broken at 2,000' AGL
Temporary  (Probability 40%) Nov-19 @ 00:00 to Nov-19 @ 03:00
PROB40 TEMPO 1900/1903 2000 TSRA SCT008 FEW016CB BKN020
Visibility Clouds Conditions
1,996 meters
  • Scattered at 800' AGL
  • Few at 1,600' AGL
  • Broken at 2,000' AGL
  • Thunderstorm
  • Rain
Temporary Nov-19 @ 00:00 to Nov-19 @ 06:00
TEMPO 1900/1906 4000 RA
Visibility Conditions
4,007 meters
  • Rain
Becoming Nov-19 @ 01:00 to Nov-19 @ 09:00
BECMG 1901/1903 29012KT
Wind Visibility Clouds
290° at 12 knots 6,003 meters
  • Scattered at 1,000' AGL
  • Broken at 2,000' AGL
TAF LGSY 182300Z 1900/1909 21015KT 6000 SCT010 BKN020 TEMPO 1900/1906 4000 RA PROB40 TEMPO 1900/1903 2000 TSRA SCT008 FEW016CB BKN020 BECMG 1901/1903 29012KT
Issued Nov-18 @ 23:00 UTC
(2 hours ago)
Valid From Nov-19 @ 00:00 UTC
(58 minutes ago)
Valid To Nov-19 @ 09:00 UTC
(in 8 hours)
Nov-19 @ 00:00 - Nov-19 @ 01:00
Wind Visibility
210° at 15 knots 6,003 meters
Clouds
  • Scattered at 1,000' AGL
  • Broken at 2,000' AGL
Probability 40% Temporary Nov-19 @ 00:00 - Nov-19 @ 03:00
Clouds
  • Scattered at 800' AGL
  • Few at 1,600' AGL
  • Broken at 2,000' AGL
Conditions
  • Thunderstorm
  • Rain
Temporary Nov-19 @ 00:00 - Nov-19 @ 06:00
Conditions
  • Rain
Becoming Nov-19 @ 01:00 - Nov-19 @ 09:00
Wind Visibility
290° at 12 knots 6,003 meters
Clouds
  • Scattered at 1,000' AGL
  • Broken at 2,000' AGL